Time;durP1;ratioP1;P1;durP2;ratioP2;P2;SDS_P1;SDS_P2;PMS_P1;PMS_P2;Temp;Humidity;BMP_temperature;BMP_pressure;BME280_temperature;BME280_humidity;BME280_pressure;Samples;Min_cycle;Max_cycle;Signal;HPM_P1;HPM_P2
2024/01/20 00:02:09;;;;;;;18.52;10.98;;;;;;;;;;6241869;22;20453;-79
2024/01/20 00:04:36;;;;;;;19.85;10.73;;;;;;;;;;6243160;22;20090;-78
2024/01/20 00:07:03;;;;;;;19.15;11.18;;;;;;;;;;6243706;22;20313;-78
2024/01/20 00:09:30;;;;;;;15.98;10.82;;;;;;;;;;6243977;22;20449;-78
2024/01/20 00:12:11;;;;;;;22.70;11.38;;;;;;;;;;6245359;22;20074;-77
2024/01/20 00:14:38;;;;;;;19.38;10.70;;;;;;;;;;6246840;22;20030;-77
2024/01/20 00:17:05;;;;;;;18.75;11.65;;;;;;;;;;6244571;22;20020;-77
2024/01/20 00:19:45;;;;;;;17.45;10.00;;;;;;;;;;6247245;22;20020;-76
2024/01/20 00:22:15;;;;;;;14.95;10.00;;;;;;;;;;6246948;22;20079;-77
2024/01/20 00:24:41;;;;;;;14.82;9.75;;;;;;;;;;6243671;22;20314;-78
2024/01/20 00:27:08;;;;;;;14.60;9.38;;;;;;;;;;6243233;22;20043;-77
2024/01/20 00:29:35;;;;;;;15.68;10.07;;;;;;;;;;6242884;22;20016;-78
2024/01/20 00:32:02;;;;;;;18.00;10.70;;;;;;;;;;6242395;22;20026;-78
2024/01/20 00:34:29;;;;;;;16.30;9.93;;;;;;;;;;6242656;22;20024;-78
2024/01/20 00:37:16;;;;;;;15.48;9.35;;;;;;;;;;6240981;22;20039;-77
2024/01/20 00:39:43;;;;;;;16.83;10.13;;;;;;;;;;6244608;22;20015;-78
2024/01/20 00:42:09;;;;;;;17.25;10.30;;;;;;;;;;6246600;22;20028;-77
2024/01/20 00:44:36;;;;;;;13.18;9.38;;;;;;;;;;6246653;22;20325;-76
2024/01/20 00:47:03;;;;;;;17.77;10.00;;;;;;;;;;6247228;22;20027;-76
2024/01/20 00:49:29;;;;;;;20.60;9.93;;;;;;;;;;6246827;22;20047;-77
2024/01/20 00:51:56;;;;;;;17.83;9.55;;;;;;;;;;6246991;22;20062;-77
2024/01/20 00:54:23;;;;;;;15.10;9.90;;;;;;;;;;6246235;22;20022;-77
2024/01/20 00:56:50;;;;;;;15.93;9.90;;;;;;;;;;6246899;22;20015;-77
2024/01/20 00:59:16;;;;;;;15.65;9.25;;;;;;;;;;6245956;22;20338;-76
2024/01/20 01:01:43;;;;;;;13.82;9.20;;;;;;;;;;6246960;22;20087;-78
2024/01/20 01:04:10;;;;;;;16.60;9.35;;;;;;;;;;6246462;22;20062;-77
2024/01/20 01:06:36;;;;;;;15.73;9.85;;;;;;;;;;6246939;22;20099;-78
2024/01/20 01:09:03;;;;;;;14.45;9.18;;;;;;;;;;6246694;22;20390;-78
2024/01/20 01:11:30;;;;;;;19.48;10.13;;;;;;;;;;6246321;22;20028;-78
2024/01/20 01:13:57;;;;;;;17.23;8.90;;;;;;;;;;6246523;22;20047;-78
2024/01/20 01:16:24;;;;;;;13.38;9.07;;;;;;;;;;6244703;22;20045;-77
2024/01/20 01:18:50;;;;;;;17.08;10.20;;;;;;;;;;6246788;22;20070;-76
2024/01/20 01:21:17;;;;;;;16.80;9.77;;;;;;;;;;6245873;22;20441;-77
2024/01/20 01:23:44;;;;;;;15.20;9.52;;;;;;;;;;6247371;22;20020;-77
2024/01/20 01:26:10;;;;;;;13.18;9.15;;;;;;;;;;6246026;22;20039;-79
2024/01/20 01:28:37;;;;;;;13.90;9.57;;;;;;;;;;6246886;22;20027;-78
2024/01/20 01:31:04;;;;;;;18.33;9.45;;;;;;;;;;6246128;22;20480;-77
2024/01/20 01:33:31;;;;;;;15.10;9.23;;;;;;;;;;6246464;22;20024;-77
2024/01/20 01:35:57;;;;;;;20.55;10.05;;;;;;;;;;6244668;23;20020;-77
2024/01/20 01:38:24;;;;;;;16.45;9.38;;;;;;;;;;6246574;22;20024;-78
2024/01/20 01:40:51;;;;;;;20.40;10.63;;;;;;;;;;6247209;22;20023;-79
2024/01/20 01:43:17;;;;;;;16.52;9.50;;;;;;;;;;6245920;22;20422;-78
2024/01/20 01:45:44;;;;;;;15.77;9.63;;;;;;;;;;6245905;22;20020;-79
2024/01/20 01:48:11;;;;;;;15.07;9.80;;;;;;;;;;6246289;22;20465;-78
2024/01/20 01:50:38;;;;;;;17.98;9.40;;;;;;;;;;6244981;22;20066;-77
2024/01/20 01:53:05;;;;;;;13.98;8.63;;;;;;;;;;6243995;22;20321;-78
2024/01/20 01:55:34;;;;;;;19.63;9.90;;;;;;;;;;6244261;22;20028;-77
2024/01/20 01:58:03;;;;;;;20.35;10.00;;;;;;;;;;6245044;22;20020;-78
2024/01/20 02:00:29;;;;;;;;;;;;;;;;;;6244563;22;20028;-78
2024/01/20 02:02:56;;;;;;;20.50;10.43;;;;;;;;;;6244966;22;19969;-78
2024/01/20 02:05:23;;;;;;;14.43;9.13;;;;;;;;;;6244263;22;20016;-78
2024/01/20 02:07:51;;;;;;;17.55;9.48;;;;;;;;;;6268254;22;20015;-78
2024/01/20 02:10:18;;;;;;;17.58;9.25;;;;;;;;;;6242468;22;20023;-77
2024/01/20 02:12:45;;;;;;;16.15;8.77;;;;;;;;;;6268407;22;20023;-78
2024/01/20 02:15:13;;;;;;;15.27;9.63;;;;;;;;;;6244631;22;20038;-78
2024/01/20 02:17:51;;;;;;;;;;;;;;;;;;6247097;22;20027;-78
2024/01/20 02:20:18;;;;;;;19.23;9.60;;;;;;;;;;6246555;22;19923;-77
2024/01/20 02:22:45;;;;;;;14.15;8.73;;;;;;;;;;6247220;22;20024;-78
2024/01/20 02:25:12;;;;;;;13.20;8.75;;;;;;;;;;6244132;22;20079;-78
2024/01/20 02:27:38;;;;;;;19.27;9.98;;;;;;;;;;6244204;22;20298;-77
2024/01/20 02:30:06;;;;;;;14.02;9.32;;;;;;;;;;6245692;22;20349;-76
2024/01/20 02:32:32;;;;;;;14.73;9.38;;;;;;;;;;6245862;22;20040;-77
2024/01/20 02:34:59;;;;;;;14.82;9.45;;;;;;;;;;6245984;22;20016;-77
2024/01/20 02:37:26;;;;;;;13.63;8.63;;;;;;;;;;6245428;22;20020;-78
2024/01/20 02:39:53;;;;;;;16.90;9.35;;;;;;;;;;6246074;22;20023;-77
2024/01/20 02:42:19;;;;;;;16.92;9.02;;;;;;;;;;6245315;22;20455;-78
2024/01/20 02:44:46;;;;;;;17.70;8.73;;;;;;;;;;6245725;22;20062;-78
2024/01/20 02:47:13;;;;;;;15.38;8.77;;;;;;;;;;6245268;22;20429;-78
2024/01/20 02:49:40;;;;;;;19.23;9.50;;;;;;;;;;6245715;22;20449;-78
2024/01/20 02:52:07;;;;;;;15.30;8.63;;;;;;;;;;6245378;22;20392;-78
2024/01/20 02:54:34;;;;;;;14.38;8.93;;;;;;;;;;6245797;22;20016;-76
2024/01/20 02:57:00;;;;;;;15.45;8.95;;;;;;;;;;6245876;22;20017;-77
2024/01/20 02:59:27;;;;;;;15.55;9.20;;;;;;;;;;6245584;22;20074;-77
2024/01/20 03:01:54;;;;;;;14.60;9.30;;;;;;;;;;6245665;22;20012;-77
2024/01/20 03:04:21;;;;;;;13.57;9.20;;;;;;;;;;6245211;22;20016;-78
2024/01/20 03:06:47;;;;;;;17.42;9.15;;;;;;;;;;6245960;22;20026;-77
2024/01/20 03:09:14;;;;;;;13.02;8.50;;;;;;;;;;6245047;22;20023;-77
2024/01/20 03:11:42;;;;;;;16.50;8.90;;;;;;;;;;6245668;22;20395;-78
2024/01/20 03:14:09;;;;;;;15.27;9.30;;;;;;;;;;6245185;22;20496;-78
2024/01/20 03:16:37;;;;;;;15.60;8.88;;;;;;;;;;6245681;22;20027;-77
2024/01/20 03:19:05;;;;;;;15.30;9.15;;;;;;;;;;6244975;22;20016;-76
2024/01/20 03:21:33;;;;;;;15.52;8.82;;;;;;;;;;6245774;22;20433;-78
2024/01/20 03:24:00;;;;;;;15.45;9.07;;;;;;;;;;6245596;22;20016;-78
2024/01/20 03:26:26;;;;;;;16.42;9.38;;;;;;;;;;6244892;22;20016;-77
2024/01/20 03:28:53;;;;;;;18.40;9.05;;;;;;;;;;6245691;22;20020;-79
2024/01/20 03:31:20;;;;;;;17.85;9.05;;;;;;;;;;6245104;22;20012;-77
2024/01/20 03:33:47;;;;;;;15.50;8.77;;;;;;;;;;6245631;22;20016;-78
2024/01/20 03:36:13;;;;;;;16.45;9.10;;;;;;;;;;6245310;22;20070;-78
2024/01/20 03:38:40;;;;;;;26.15;9.77;;;;;;;;;;6245574;22;20015;-78
2024/01/20 03:41:07;;;;;;;14.80;9.75;;;;;;;;;;6245141;22;20020;-78
2024/01/20 03:43:34;;;;;;;16.58;9.60;;;;;;;;;;6244192;23;20027;-78
2024/01/20 03:46:00;;;;;;;16.33;9.48;;;;;;;;;;6245518;22;20020;-77
2024/01/20 03:48:27;;;;;;;16.83;9.60;;;;;;;;;;6244654;22;20026;-77
2024/01/20 03:50:54;;;;;;;13.27;8.82;;;;;;;;;;6245635;22;20039;-78
2024/01/20 03:53:21;;;;;;;19.65;9.65;;;;;;;;;;6245093;22;20016;-78
2024/01/20 03:55:47;;;;;;;19.45;9.68;;;;;;;;;;6245467;22;20016;-78
2024/01/20 03:58:14;;;;;;;13.60;9.70;;;;;;;;;;6245122;22;20016;-77
2024/01/20 04:00:43;;;;;;;14.02;8.98;;;;;;;;;;6245615;22;20020;-77
2024/01/20 04:03:10;;;;;;;17.27;9.02;;;;;;;;;;6244861;22;20091;-78
2024/01/20 04:05:39;;;;;;;16.33;9.80;;;;;;;;;;6245485;22;20091;-78
2024/01/20 04:08:06;;;;;;;17.67;9.85;;;;;;;;;;6245125;22;20016;-78
2024/01/20 04:10:33;;;;;;;15.02;9.77;;;;;;;;;;6245318;22;20016;-78
2024/01/20 04:12:59;;;;;;;16.83;10.82;;;;;;;;;;6243912;22;20017;-79
2024/01/20 04:15:27;;;;;;;15.50;9.65;;;;;;;;;;6242917;22;20047;-79
2024/01/20 04:17:54;;;;;;;17.73;10.32;;;;;;;;;;6243349;22;20333;-77
2024/01/20 04:20:21;;;;;;;19.30;9.98;;;;;;;;;;6242956;22;20016;-77
2024/01/20 04:22:47;;;;;;;14.30;10.02;;;;;;;;;;6243514;22;20012;-77
2024/01/20 04:25:14;;;;;;;19.85;9.93;;;;;;;;;;6243192;22;20313;-77
2024/01/20 04:27:41;;;;;;;17.27;9.60;;;;;;;;;;6243543;22;20095;-78
2024/01/20 04:30:09;;;;;;;24.98;10.27;;;;;;;;;;6243130;22;20459;-78
2024/01/20 04:32:36;;;;;;;17.98;10.23;;;;;;;;;;6243289;22;20032;-78
2024/01/20 04:35:06;;;;;;;18.95;10.68;;;;;;;;;;6245711;22;20439;-79
2024/01/20 04:37:33;;;;;;;16.52;10.20;;;;;;;;;;6246858;22;20020;-78
2024/01/20 04:40:00;;;;;;;14.40;10.10;;;;;;;;;;6247200;22;20012;-78
2024/01/20 04:42:27;;;;;;;17.05;10.43;;;;;;;;;;6246393;22;20445;-78
2024/01/20 04:44:54;;;;;;;19.00;11.15;;;;;;;;;;6247262;22;20016;-78
2024/01/20 04:47:21;;;;;;;16.25;10.68;;;;;;;;;;6246817;22;20039;-78
2024/01/20 04:49:53;;;;;;;18.63;10.70;;;;;;;;;;6247644;22;20019;-78
2024/01/20 04:52:20;;;;;;;20.42;10.63;;;;;;;;;;6247103;22;20358;-77
2024/01/20 04:54:47;;;;;;;23.63;10.75;;;;;;;;;;6247313;22;20113;-78
2024/01/20 04:57:14;;;;;;;22.02;10.95;;;;;;;;;;6246463;22;20024;-79
2024/01/20 04:59:41;;;;;;;18.90;10.82;;;;;;;;;;6246956;22;20039;-79
2024/01/20 05:02:07;;;;;;;25.75;11.05;;;;;;;;;;6246392;22;20507;-78
2024/01/20 05:04:34;;;;;;;16.05;10.30;;;;;;;;;;6245928;23;20020;-78
2024/01/20 05:07:01;;;;;;;22.38;10.75;;;;;;;;;;6246942;22;20017;-79
2024/01/20 05:09:28;;;;;;;18.30;10.80;;;;;;;;;;6246356;22;20016;-78
2024/01/20 05:11:54;;;;;;;18.65;10.57;;;;;;;;;;6246810;22;20020;-78
2024/01/20 05:14:21;;;;;;;15.90;10.70;;;;;;;;;;6246100;22;20416;-78
2024/01/20 05:16:48;;;;;;;18.73;10.60;;;;;;;;;;6245435;23;20082;-78
2024/01/20 05:19:15;;;;;;;17.52;10.63;;;;;;;;;;6246107;22;20019;-79
2024/01/20 05:21:41;;;;;;;17.45;10.70;;;;;;;;;;6246767;22;20020;-79
2024/01/20 05:24:10;;;;;;;19.92;11.13;;;;;;;;;;6246637;22;20091;-79
2024/01/20 05:26:38;;;;;;;16.30;11.27;;;;;;;;;;6245316;23;20016;-78
2024/01/20 05:29:05;;;;;;;23.30;11.77;;;;;;;;;;6246370;22;20018;-78
2024/01/20 05:31:32;;;;;;;19.05;10.80;;;;;;;;;;6246871;22;20440;-78
2024/01/20 05:33:59;;;;;;;18.92;10.95;;;;;;;;;;6246871;22;20024;-78
2024/01/20 05:36:26;;;;;;;17.75;10.65;;;;;;;;;;6246022;22;20328;-78
2024/01/20 05:38:53;;;;;;;16.83;10.38;;;;;;;;;;6246712;22;20012;-77
2024/01/20 05:41:20;;;;;;;19.75;10.20;;;;;;;;;;6246039;22;20495;-77
2024/01/20 05:43:46;;;;;;;19.83;10.65;;;;;;;;;;6246507;22;20020;-78
2024/01/20 05:46:13;;;;;;;17.02;10.60;;;;;;;;;;6245732;22;20016;-78
2024/01/20 05:48:40;;;;;;;19.17;10.88;;;;;;;;;;6246440;22;20012;-77
2024/01/20 05:51:06;;;;;;;17.23;10.25;;;;;;;;;;6246076;22;20047;-78
2024/01/20 05:53:33;;;;;;;17.30;9.88;;;;;;;;;;6244604;23;20067;-77
2024/01/20 05:56:00;;;;;;;17.85;10.75;;;;;;;;;;6246680;22;20016;-78
2024/01/20 05:58:27;;;;;;;15.68;10.23;;;;;;;;;;6245745;22;20016;-77
2024/01/20 06:00:54;;;;;;;14.85;10.88;;;;;;;;;;6246031;22;20019;-76
2024/01/20 06:03:21;;;;;;;15.23;10.35;;;;;;;;;;6245968;22;20373;-78
2024/01/20 06:05:49;;;;;;;15.77;9.88;;;;;;;;;;6246661;22;20016;-77
2024/01/20 06:08:16;;;;;;;17.13;11.02;;;;;;;;;;6245118;22;20016;-77
2024/01/20 06:10:43;;;;;;;18.25;10.15;;;;;;;;;;6246376;22;20026;-81
2024/01/20 06:13:10;;;;;;;15.13;10.38;;;;;;;;;;6244016;22;20383;-80
2024/01/20 06:15:36;;;;;;;16.98;10.23;;;;;;;;;;6270120;22;20023;-77
2024/01/20 06:18:03;;;;;;;19.30;10.30;;;;;;;;;;6244549;23;20016;-80
2024/01/20 06:20:30;;;;;;;17.95;10.45;;;;;;;;;;6245771;22;20091;-79
2024/01/20 06:22:57;;;;;;;17.20;10.68;;;;;;;;;;6244495;23;20017;-78
2024/01/20 06:25:24;;;;;;;18.95;11.05;;;;;;;;;;6245502;22;20012;-77
2024/01/20 06:27:50;;;;;;;22.75;10.05;;;;;;;;;;6245990;22;20012;-79
2024/01/20 06:30:17;;;;;;;16.58;10.65;;;;;;;;;;6245406;22;20019;-79
2024/01/20 06:32:45;;;;;;;16.15;10.57;;;;;;;;;;6244376;23;20016;-79
2024/01/20 06:35:12;;;;;;;19.17;10.80;;;;;;;;;;6245341;22;20016;-79
2024/01/20 06:37:38;;;;;;;20.63;11.10;;;;;;;;;;6246047;22;20019;-78
2024/01/20 06:40:06;;;;;;;24.08;13.23;;;;;;;;;;6244781;22;20433;-77
2024/01/20 06:42:33;;;;;;;17.35;11.00;;;;;;;;;;6245912;22;20021;-78
2024/01/20 06:45:00;;;;;;;19.35;10.82;;;;;;;;;;6245759;22;20023;-78
2024/01/20 06:47:27;;;;;;;23.42;11.10;;;;;;;;;;6245283;22;20043;-78
2024/01/20 06:49:54;;;;;;;21.13;11.15;;;;;;;;;;6245996;22;20016;-78
2024/01/20 06:52:21;;;;;;;15.27;10.77;;;;;;;;;;6245294;22;20012;-78
2024/01/20 06:54:48;;;;;;;20.42;11.45;;;;;;;;;;6245473;22;20019;-78
2024/01/20 06:57:15;;;;;;;18.00;9.93;;;;;;;;;;6245142;22;20026;-77
2024/01/20 06:59:42;;;;;;;19.33;10.75;;;;;;;;;;6245308;22;20020;-78
2024/01/20 07:02:08;;;;;;;20.13;10.90;;;;;;;;;;6241839;22;20020;-77
2024/01/20 07:04:35;;;;;;;21.45;10.93;;;;;;;;;;6242203;23;20020;-78
2024/01/20 07:07:02;;;;;;;19.27;10.30;;;;;;;;;;6244675;22;20015;-77
2024/01/20 07:09:29;;;;;;;19.33;11.23;;;;;;;;;;6244849;22;20082;-77
2024/01/20 07:11:57;;;;;;;19.20;11.05;;;;;;;;;;6243512;22;20514;-77
2024/01/20 07:14:25;;;;;;;20.10;10.60;;;;;;;;;;6242763;22;20023;-77
2024/01/20 07:16:52;;;;;;;20.05;10.65;;;;;;;;;;6242671;22;20020;-77
2024/01/20 07:19:19;;;;;;;18.58;10.48;;;;;;;;;;6239938;22;20087;-77
2024/01/20 07:21:46;;;;;;;18.17;11.48;;;;;;;;;;6241140;22;20346;-77
2024/01/20 07:24:13;;;;;;;19.75;10.88;;;;;;;;;;6239646;22;20031;-77
2024/01/20 07:26:40;;;;;;;16.20;10.40;;;;;;;;;;6242903;22;20035;-78
2024/01/20 07:29:06;;;;;;;17.90;10.43;;;;;;;;;;6243313;22;20070;-78
2024/01/20 07:31:33;;;;;;;23.33;9.98;;;;;;;;;;6243940;22;20016;-78
2024/01/20 07:34:00;;;;;;;18.27;9.68;;;;;;;;;;6243658;22;20321;-80
2024/01/20 07:36:27;;;;;;;24.98;11.60;;;;;;;;;;6242841;22;20112;-80
2024/01/20 07:38:54;;;;;;;22.27;10.55;;;;;;;;;;6243466;22;20498;-79
2024/01/20 07:41:20;;;;;;;16.38;10.55;;;;;;;;;;6242691;22;20047;-77
2024/01/20 07:43:47;;;;;;;19.33;9.40;;;;;;;;;;6243593;22;20438;-77
2024/01/20 07:46:14;;;;;;;18.33;11.20;;;;;;;;;;6241460;22;20555;-78
2024/01/20 07:48:42;;;;;;;16.92;10.27;;;;;;;;;;6242006;22;20357;-77
2024/01/20 07:51:09;;;;;;;15.43;10.55;;;;;;;;;;6243674;22;20046;-79
2024/01/20 07:53:36;;;;;;;23.98;15.20;;;;;;;;;;6242271;23;20678;-77
2024/01/20 07:56:03;;;;;;;17.50;11.10;;;;;;;;;;6243748;22;20020;-77
2024/01/20 07:58:29;;;;;;;22.40;11.57;;;;;;;;;;6244399;22;20028;-77
2024/01/20 08:00:56;;;;;;;20.35;10.95;;;;;;;;;;6243728;22;20016;-77
2024/01/20 08:03:23;;;;;;;13.65;9.18;;;;;;;;;;6243134;22;20155;-77
2024/01/20 08:05:50;;;;;;;19.38;10.88;;;;;;;;;;6243399;22;20445;-77
2024/01/20 08:08:16;;;;;;;19.30;10.55;;;;;;;;;;6243578;22;20020;-77
2024/01/20 08:10:43;;;;;;;24.02;10.88;;;;;;;;;;6245722;22;20019;-79
2024/01/20 08:13:10;;;;;;;14.93;9.82;;;;;;;;;;6244996;22;20457;-79
2024/01/20 08:15:37;;;;;;;20.13;10.57;;;;;;;;;;6245737;22;20046;-79
2024/01/20 08:18:04;;;;;;;17.60;10.77;;;;;;;;;;6218444;22;20326;-77
2024/01/20 08:20:31;;;;;;;16.85;10.63;;;;;;;;;;6243412;22;20449;-79
2024/01/20 08:22:57;;;;;;;15.18;10.70;;;;;;;;;;6245012;22;20062;-78
2024/01/20 08:25:24;;;;;;;21.70;11.15;;;;;;;;;;6244630;22;20077;-79
2024/01/20 08:27:51;;;;;;;25.05;12.00;;;;;;;;;;6245681;22;20018;-79
2024/01/20 08:30:17;;;;;;;18.88;11.18;;;;;;;;;;6245009;22;20016;-78
2024/01/20 08:32:44;;;;;;;19.83;11.32;;;;;;;;;;6246172;22;20031;-78
2024/01/20 08:35:11;;;;;;;22.73;11.63;;;;;;;;;;6243045;22;20024;-77
2024/01/20 08:37:38;;;;;;;21.00;11.45;;;;;;;;;;6245263;22;20481;-78
2024/01/20 08:40:06;;;;;;;22.30;11.52;;;;;;;;;;6244249;22;20043;-78
2024/01/20 08:42:32;;;;;;;22.00;12.38;;;;;;;;;;6245129;22;20055;-78
2024/01/20 08:44:59;;;;;;;19.25;12.75;;;;;;;;;;6245226;22;20027;-78
2024/01/20 08:47:27;;;;;;;22.08;12.02;;;;;;;;;;6244560;22;20016;-78
2024/01/20 08:49:54;;;;;;;22.48;13.63;;;;;;;;;;6245194;22;20016;-78
2024/01/20 08:52:20;;;;;;;23.90;13.25;;;;;;;;;;6244143;22;20079;-78
2024/01/20 08:54:47;;;;;;;23.17;13.18;;;;;;;;;;6245175;22;20511;-78
2024/01/20 08:57:14;;;;;;;21.63;13.05;;;;;;;;;;6244458;22;20013;-79
2024/01/20 08:59:41;;;;;;;23.90;14.52;;;;;;;;;;6245290;22;20016;-78
2024/01/20 09:02:08;;;;;;;26.17;14.00;;;;;;;;;;6244787;22;20017;-78
2024/01/20 09:04:34;;;;;;;23.92;13.80;;;;;;;;;;6245454;22;20023;-79
2024/01/20 09:07:02;;;;;;;25.25;14.13;;;;;;;;;;6245236;22;20020;-78
2024/01/20 09:09:29;;;;;;;26.50;14.90;;;;;;;;;;6245137;22;20066;-78
2024/01/20 09:11:55;;;;;;;25.50;14.38;;;;;;;;;;6251383;22;20270;-78
2024/01/20 09:14:22;;;;;;;18.27;13.02;;;;;;;;;;6252645;22;20076;-80
2024/01/20 09:16:49;;;;;;;23.67;13.48;;;;;;;;;;6250137;22;20484;-79
2024/01/20 09:19:16;;;;;;;20.77;12.90;;;;;;;;;;6246161;22;20023;-78
2024/01/20 09:21:44;;;;;;;22.83;12.88;;;;;;;;;;6246327;22;20091;-80
2024/01/20 09:24:11;;;;;;;22.63;13.00;;;;;;;;;;6246266;22;20078;-78
2024/01/20 09:26:38;;;;;;;19.90;12.93;;;;;;;;;;6246634;22;20023;-79
2024/01/20 09:29:05;;;;;;;24.27;13.13;;;;;;;;;;6243802;22;20023;-79
2024/01/20 09:31:32;;;;;;;22.58;12.25;;;;;;;;;;6246287;22;20016;-78
2024/01/20 09:33:58;;;;;;;15.70;11.90;;;;;;;;;;6246497;22;20060;-79
2024/01/20 09:36:25;;;;;;;22.15;13.10;;;;;;;;;;6246163;22;20023;-79
2024/01/20 09:38:52;;;;;;;15.82;11.82;;;;;;;;;;6246515;22;20032;-79
2024/01/20 09:41:19;;;;;;;17.77;11.48;;;;;;;;;;6245940;22;20441;-80
2024/01/20 09:43:47;;;;;;;18.35;12.15;;;;;;;;;;6246447;22;20016;-79
2024/01/20 09:46:14;;;;;;;23.33;12.10;;;;;;;;;;6245877;22;20039;-80
2024/01/20 09:48:43;;;;;;;15.40;11.15;;;;;;;;;;6246378;22;20251;-79
2024/01/20 09:51:10;;;;;;;17.90;11.45;;;;;;;;;;6245834;22;20039;-79
2024/01/20 09:53:38;;;;;;;19.05;12.05;;;;;;;;;;6246256;22;20027;-79
2024/01/20 09:56:05;;;;;;;16.13;10.93;;;;;;;;;;6245997;22;20012;-79
2024/01/20 09:58:35;;;;;;;17.25;11.27;;;;;;;;;;6246275;22;20016;-79
2024/01/20 10:01:02;;;;;;;17.58;11.13;;;;;;;;;;6270054;22;20058;-79
2024/01/20 10:03:34;;;;;;;18.55;11.45;;;;;;;;;;6246005;22;20055;-79
2024/01/20 10:06:01;;;;;;;18.92;11.30;;;;;;;;;;6246135;22;20441;-80
2024/01/20 10:08:28;;;;;;;19.20;11.60;;;;;;;;;;6245686;22;20022;-79
2024/01/20 10:11:03;;;;;;;15.48;11.30;;;;;;;;;;6246200;22;20445;-79
2024/01/20 10:13:30;;;;;;;16.90;10.73;;;;;;;;;;6245917;22;20475;-80
2024/01/20 10:15:57;;;;;;;17.48;11.50;;;;;;;;;;6246030;22;20070;-80
2024/01/20 10:18:24;;;;;;;18.92;12.15;;;;;;;;;;6245231;22;20032;-80
2024/01/20 10:21:01;;;;;;;17.98;12.02;;;;;;;;;;6246057;22;20429;-80
2024/01/20 10:23:28;;;;;;;16.98;10.65;;;;;;;;;;6245587;22;20449;-79
2024/01/20 10:26:02;;;;;;;15.52;11.15;;;;;;;;;;6245890;22;20016;-80
2024/01/20 10:28:29;;;;;;;22.08;11.60;;;;;;;;;;6245480;22;20024;-79
2024/01/20 10:30:56;;;;;;;16.90;12.02;;;;;;;;;;6246163;22;20485;-79
2024/01/20 10:33:23;;;;;;;20.35;12.18;;;;;;;;;;6245010;22;20023;-79
2024/01/20 10:35:50;;;;;;;16.77;12.18;;;;;;;;;;6245931;22;20043;-79
2024/01/20 10:38:21;;;;;;;19.10;12.27;;;;;;;;;;6245356;22;20016;-79
2024/01/20 10:40:53;;;;;;;24.25;12.43;;;;;;;;;;6244549;23;20017;-78
2024/01/20 10:43:20;;;;;;;17.77;11.82;;;;;;;;;;6245478;22;20306;-78
2024/01/20 10:46:01;;;;;;;20.45;11.73;;;;;;;;;;6245593;22;20028;-79
2024/01/20 10:48:33;;;;;;;22.17;12.40;;;;;;;;;;6244726;22;20103;-78
2024/01/20 10:51:07;;;;;;;21.48;12.27;;;;;;;;;;6245933;22;20039;-78
2024/01/20 10:53:35;;;;;;;18.13;11.90;;;;;;;;;;6245651;22;20500;-78
2024/01/20 10:56:04;;;;;;;18.23;11.50;;;;;;;;;;6246034;22;20012;-79
2024/01/20 10:58:35;;;;;;;18.00;11.07;;;;;;;;;;6245507;22;20597;-79
2024/01/20 11:01:02;;;;;;;17.90;10.93;;;;;;;;;;6245902;22;20310;-79
2024/01/20 11:03:29;;;;;;;15.18;10.00;;;;;;;;;;6245616;22;20024;-78
2024/01/20 11:05:56;;;;;;;20.40;10.45;;;;;;;;;;6245875;22;20012;-78
2024/01/20 11:08:25;;;;;;;14.35;8.85;;;;;;;;;;6245195;22;20040;-78
2024/01/20 11:10:55;;;;;;;;;;;;;;;;;;6246489;22;20065;-79
2024/01/20 11:13:26;;;;;;;15.40;9.75;;;;;;;;;;6245163;22;19926;-79
2024/01/20 11:15:54;;;;;;;16.30;9.90;;;;;;;;;;6245493;22;20322;-79
2024/01/20 11:18:22;;;;;;;20.13;8.90;;;;;;;;;;6244233;22;20329;-79
2024/01/20 11:21:03;;;;;;;13.80;7.80;;;;;;;;;;6245826;22;20036;-79
2024/01/20 11:23:30;;;;;;;14.00;7.85;;;;;;;;;;6244892;22;20024;-79
2024/01/20 11:26:09;;;;;;;15.43;8.57;;;;;;;;;;6245353;22;20019;-79
2024/01/20 11:28:35;;;;;;;2.67;1.20;;;;;;;;;;6245069;22;20020;-79
2024/01/20 11:31:05;;;;;;;4.28;1.15;;;;;;;;;;6245405;22;20024;-79
2024/01/20 11:33:32;;;;;;;5.03;1.50;;;;;;;;;;6268889;22;20384;-78
2024/01/20 11:36:02;;;;;;;2.90;1.42;;;;;;;;;;6245358;22;20096;-79
2024/01/20 11:38:31;;;;;;;7.45;1.33;;;;;;;;;;6244828;22;20031;-79
2024/01/20 11:40:59;;;;;;;4.68;1.98;;;;;;;;;;6244480;22;20008;-81
2024/01/20 11:43:26;;;;;;;2.72;1.05;;;;;;;;;;6245086;22;20023;-80
2024/01/20 11:45:55;;;;;;;6.65;1.25;;;;;;;;;;6245932;23;20032;-80
2024/01/20 11:48:22;;;;;;;6.57;1.10;;;;;;;;;;6246693;22;20016;-80
2024/01/20 11:50:49;;;;;;;3.05;1.00;;;;;;;;;;6247224;22;20445;-78
2024/01/20 11:53:16;;;;;;;7.88;1.13;;;;;;;;;;6246865;22;20019;-79
2024/01/20 11:55:58;;;;;;;3.40;1.17;;;;;;;;;;6271247;22;20012;-79
2024/01/20 11:58:27;;;;;;;3.55;0.93;;;;;;;;;;6245275;22;20355;-80
2024/01/20 12:00:54;;;;;;;5.68;1.13;;;;;;;;;;6247396;22;20445;-79
2024/01/20 12:03:22;;;;;;;4.72;0.90;;;;;;;;;;6246779;22;20032;-80
2024/01/20 12:05:50;;;;;;;4.55;0.68;;;;;;;;;;6247355;22;20016;-79
2024/01/20 12:08:17;;;;;;;6.32;0.98;;;;;;;;;;6246589;22;20028;-80
2024/01/20 12:10:48;;;;;;;4.65;0.90;;;;;;;;;;6247342;22;20070;-81
2024/01/20 12:13:15;;;;;;;5.97;0.98;;;;;;;;;;6246557;22;20042;-81
2024/01/20 12:15:46;;;;;;;5.18;1.00;;;;;;;;;;6246995;22;20016;-81
2024/01/20 12:18:15;;;;;;;6.22;1.10;;;;;;;;;;6246681;22;20017;-81
2024/01/20 12:20:43;;;;;;;;;;;;;;;;;;6247951;22;20040;-81
2024/01/20 12:23:09;;;;;;;6.78;0.90;;;;;;;;;;6246938;22;19941;-80
2024/01/20 12:25:36;;;;;;;2.65;1.40;;;;;;;;;;6247110;22;20676;-80
2024/01/20 12:28:03;;;;;;;4.30;0.77;;;;;;;;;;6246738;22;20022;-80
2024/01/20 12:30:30;;;;;;;5.57;0.80;;;;;;;;;;6246832;22;20115;-79
2024/01/20 12:32:57;;;;;;;2.88;0.50;;;;;;;;;;6247217;22;20689;-80
2024/01/20 12:35:25;;;;;;;6.18;1.30;;;;;;;;;;6246216;22;20543;-79
2024/01/20 12:37:52;;;;;;;4.43;0.70;;;;;;;;;;6247287;22;20016;-78
2024/01/20 12:40:18;;;;;;;3.25;1.00;;;;;;;;;;6246314;22;20548;-79
2024/01/20 12:42:45;;;;;;;6.55;1.02;;;;;;;;;;6247722;22;20511;-79
2024/01/20 12:45:12;;;;;;;10.45;2.00;;;;;;;;;;6246209;22;20341;-79
2024/01/20 12:47:39;;;;;;;3.60;0.88;;;;;;;;;;6246088;22;20457;-81
2024/01/20 12:50:06;;;;;;;6.40;1.20;;;;;;;;;;6245892;22;20092;-80
2024/01/20 12:52:33;;;;;;;5.40;1.00;;;;;;;;;;6245945;22;20441;-79
2024/01/20 12:55:00;;;;;;;5.55;1.10;;;;;;;;;;6245028;22;20067;-80
2024/01/20 12:57:27;;;;;;;3.25;0.93;;;;;;;;;;6246185;22;20365;-79
2024/01/20 12:59:54;;;;;;;4.55;0.88;;;;;;;;;;6250282;22;20031;-79
2024/01/20 13:02:20;;;;;;;5.40;0.73;;;;;;;;;;6248206;22;20012;-79
2024/01/20 13:04:47;;;;;;;4.75;1.10;;;;;;;;;;6247985;22;20445;-80
2024/01/20 13:07:14;;;;;;;7.15;1.20;;;;;;;;;;6246279;22;20074;-79
2024/01/20 13:09:41;;;;;;;5.80;1.10;;;;;;;;;;6246868;22;20020;-79
2024/01/20 13:12:08;;;;;;;3.67;1.15;;;;;;;;;;6246186;22;20310;-80
2024/01/20 13:14:35;;;;;;;5.55;1.65;;;;;;;;;;6246806;22;20026;-79
2024/01/20 13:17:02;;;;;;;5.28;1.20;;;;;;;;;;6244625;23;20016;-79
2024/01/20 13:19:29;;;;;;;5.85;1.40;;;;;;;;;;6245687;22;20027;-79
2024/01/20 13:21:56;;;;;;;3.03;1.00;;;;;;;;;;6245543;22;20020;-79
2024/01/20 13:24:23;;;;;;;7.78;1.33;;;;;;;;;;6244554;22;20093;-79
2024/01/20 13:26:50;;;;;;;3.58;1.50;;;;;;;;;;6244840;22;20470;-79
2024/01/20 13:29:17;;;;;;;5.43;0.90;;;;;;;;;;6244562;22;20023;-84
2024/01/20 13:31:44;;;;;;;3.22;1.08;;;;;;;;;;6242651;23;20020;-79
2024/01/20 13:34:11;;;;;;;4.68;1.10;;;;;;;;;;6244993;22;20012;-80
2024/01/20 13:36:38;;;;;;;4.80;1.65;;;;;;;;;;6243580;22;20086;-78
2024/01/20 13:39:05;;;;;;;7.28;3.05;;;;;;;;;;6245169;22;20094;-79
2024/01/20 13:41:33;;;;;;;10.70;2.15;;;;;;;;;;6245933;22;20043;-80
2024/01/20 13:44:00;;;;;;;8.50;2.05;;;;;;;;;;6242742;22;20103;-79
2024/01/20 13:46:26;;;;;;;4.25;1.55;;;;;;;;;;6242833;22;20038;-80
2024/01/20 13:48:53;;;;;;;4.90;1.20;;;;;;;;;;6243525;22;20020;-79
2024/01/20 13:51:22;;;;;;;5.70;1.58;;;;;;;;;;6241759;22;20463;-80
2024/01/20 13:53:49;;;;;;;2.10;0.90;;;;;;;;;;6242232;22;20020;-80
2024/01/20 13:56:15;;;;;;;5.40;1.55;;;;;;;;;;6241246;22;20086;-80
2024/01/20 13:58:42;;;;;;;3.33;1.20;;;;;;;;;;6242624;22;20023;-78
2024/01/20 14:01:09;;;;;;;2.90;1.10;;;;;;;;;;6241449;22;20016;-79
2024/01/20 14:03:36;;;;;;;8.25;1.95;;;;;;;;;;6242767;22;20027;-80
2024/01/20 14:06:03;;;;;;;4.65;1.17;;;;;;;;;;6244577;22;20028;-80
2024/01/20 14:08:30;;;;;;;5.18;1.20;;;;;;;;;;6244355;22;20066;-79
2024/01/20 14:10:57;;;;;;;4.78;1.20;;;;;;;;;;6244691;22;20027;-83
2024/01/20 14:13:25;;;;;;;10.25;1.40;;;;;;;;;;6243877;22;20024;-81
2024/01/20 14:15:51;;;;;;;6.32;1.02;;;;;;;;;;6244220;22;20381;-80
2024/01/20 14:18:18;;;;;;;5.80;1.20;;;;;;;;;;6244029;22;20028;-80
2024/01/20 14:20:46;;;;;;;5.82;1.33;;;;;;;;;;6242752;23;20043;-80
2024/01/20 14:23:13;;;;;;;4.57;1.00;;;;;;;;;;6243811;22;20020;-79
2024/01/20 14:25:39;;;;;;;5.63;1.00;;;;;;;;;;6244394;22;20016;-78
2024/01/20 14:28:06;;;;;;;4.80;1.05;;;;;;;;;;6243889;22;20023;-78
2024/01/20 14:30:33;;;;;;;7.32;1.20;;;;;;;;;;6244257;22;20016;-79